Portada
METAR-TAF:

METAR-TAF

Aeroports :

Base Aèria de Morón

Morón de la Frontera, Espanya

latitud: 37-09N, longitud: 005-37W, altitud: 87 m

Observació

L'informe es va fer fa 49 minuts, a les 15:00 UTC
Vent 9 kt del Est/Nord-Est, variant entre Nord i Est/Sud-Est
Temperatura 37°C
Humitat 13%
Pressió 1016 hPa
Visibilitat 10 km o més
sense núvols per sota de 1500 mi sense presència de cumulonimbus.

METAR: LEMO 241500Z 06009KT 360V110 CAVOK 37/04 Q1016 NOSIG

Hora: 17:49 (15:49 UTC)

Pronòstic

L'informe es va fer fa 1 hora i 49 minuts, a les 14:00 UTC
Pronòstic vàlid del 24 a les 15 UTC al 24 a les 24 UTC
Vent 10 kt del Est
Visibilitat 10 km o més
sense núvols per sota de 1500 mi sense presència de cumulonimbus.
Evolucionant progressivament
l' 24 a les 18 UTC al 24 a les 21 UTC
Vent 4 kt del Oest

TAF: LEMO 241400Z 2415/2424 08010KT CAVOK BECMG 2418/2421 26004KT

Observacions i pronòstics meteorològics de més de 4000 aeroports (METAR i TAF).

Les estacions disponibles són els punts grocs i vermells al mapa.

Posi el ratolí al punt desitjat per veure el nom de l'estació.

Feu clic per veure les observacions i els pronòstics meteorològics.

Per canviar el mapa: feu clic els botons verds amb una creu de color negre per apropar; al botó verd amb un guió per allunyar la imatge; o en les fletxes verdes per a mapes adjacents.


METAR-TAF: